Time;durP1;ratioP1;P1;durP2;ratioP2;P2;SDS_P1;SDS_P2;PMS_P1;PMS_P2;Temp;Humidity;BMP_temperature;BMP_pressure;BME280_temperature;BME280_humidity;BME280_pressure;Samples;Min_cycle;Max_cycle;Signal;HPM_P1;HPM_P2
2022/05/11 00:01:46;;;;;;;3.58;2.70;;;;;;;16.50;61.63;101219.41;4822451;29;20056;-71
2022/05/11 00:04:13;;;;;;;4.35;2.90;;;;;;;16.49;62.54;101209.72;4822598;29;20513;-71
2022/05/11 00:06:39;;;;;;;8.07;2.80;;;;;;;16.45;62.68;101209.31;4822408;29;20030;-71
2022/05/11 00:09:06;;;;;;;4.80;2.53;;;;;;;16.44;62.08;101208.50;4822645;29;20050;-72
2022/05/11 00:11:32;;;;;;;4.68;2.80;;;;;;;16.45;61.93;101214.72;4822744;29;20026;-71
2022/05/11 00:13:58;;;;;;;5.57;3.03;;;;;;;16.41;61.90;101211.66;4822112;29;20481;-71
2022/05/11 00:16:28;;;;;;;10.00;2.97;;;;;;;16.42;62.51;101201.72;4822645;29;20683;-71
2022/05/11 00:18:54;;;;;;;4.45;3.10;;;;;;;16.40;62.87;101201.09;4822544;29;20034;-71
2022/05/11 00:21:20;;;;;;;4.88;2.55;;;;;;;16.39;62.90;101199.47;4822257;29;20050;-71
2022/05/11 00:23:46;;;;;;;11.68;3.25;;;;;;;16.37;63.18;101199.72;4822107;29;20093;-71
2022/05/11 00:26:12;;;;;;;5.57;2.88;;;;;;;16.38;62.90;101200.53;4822235;29;20042;-72
2022/05/11 00:28:37;;;;;;;6.70;2.70;;;;;;;16.37;63.39;101198.88;4821777;29;20063;-71
2022/05/11 00:31:03;;;;;;;7.20;3.55;;;;;;;16.35;63.28;101177.56;4822142;29;20372;-71
2022/05/11 00:33:29;;;;;;;6.53;3.28;;;;;;;16.34;63.69;101186.69;4821981;29;20042;-71
2022/05/11 00:35:55;;;;;;;5.93;2.97;;;;;;;16.31;63.11;101183.63;4822094;29;20034;-72
2022/05/11 00:38:24;;;;;;;8.43;3.33;;;;;;;16.23;63.34;101170.50;4821890;29;20038;-71
2022/05/11 00:40:54;;;;;;;5.68;3.35;;;;;;;16.28;63.68;101176.03;4790824;29;20391;-71
2022/05/11 00:43:35;;;;;;;11.18;4.55;;;;;;;16.26;63.17;101170.84;4822262;29;20022;-71
2022/05/11 00:46:25;;;;;;;5.17;2.80;;;;;;;16.24;64.51;101178.31;4822141;29;20050;-71
2022/05/11 00:51:43;;;;;;;11.07;3.97;;;;;;;16.22;63.09;101164.28;4822118;29;20049;-71
2022/05/11 00:54:09;;;;;;;6.10;2.92;;;;;;;16.23;62.90;101168.63;4822360;29;20053;-71
2022/05/11 00:56:41;;;;;;;5.25;2.92;;;;;;;16.19;63.62;101152.09;4822075;29;20078;-72
2022/05/11 00:59:19;;;;;;;6.78;3.20;;;;;;;16.21;63.28;101150.00;4805136;29;20065;-72
2022/05/11 01:01:45;;;;;;;5.55;2.72;;;;;;;16.21;64.36;101150.00;4821880;29;20412;-72
2022/05/11 01:04:18;;;;;;;4.93;3.17;;;;;;;16.18;63.35;101145.06;4821758;29;20046;-71
2022/05/11 01:06:43;;;;;;;6.85;2.88;;;;;;;16.20;63.71;101159.13;4821917;29;20033;-71
2022/05/11 01:09:10;;;;;;;4.22;3.03;;;;;;;16.19;63.27;101152.09;4821767;29;20042;-71
2022/05/11 01:11:47;;;;;;;9.07;3.35;;;;;;;16.18;63.32;101144.25;4821756;29;20113;-71
2022/05/11 01:14:15;;;;;;;7.57;3.55;;;;;;;16.19;63.74;101146.72;4821638;29;20073;-71
2022/05/11 01:16:41;;;;;;;3.63;2.20;;;;;;;16.20;62.93;101144.84;4821640;29;20065;-71
2022/05/11 01:19:12;;;;;;;4.65;2.70;;;;;;;16.21;62.90;101146.47;4821683;29;20060;-71
2022/05/11 01:21:54;;;;;;;5.80;2.97;;;;;;;16.21;62.73;101139.22;4821576;29;20034;-71
2022/05/11 01:24:28;;;;;;;4.50;3.35;;;;;;;16.23;62.40;101133.63;4821714;29;20283;-71
2022/05/11 01:26:55;;;;;;;4.93;2.90;;;;;;;16.22;62.70;101132.00;4821496;29;20470;-71
2022/05/11 01:29:20;;;;;;;4.80;2.67;;;;;;;16.21;62.79;101123.06;4821456;29;20049;-71
2022/05/11 01:31:45;;;;;;;5.68;2.72;;;;;;;16.23;62.95;101127.44;4821378;29;20035;-71
2022/05/11 01:34:18;;;;;;;3.47;2.85;;;;;;;16.23;62.04;101125.56;4821472;29;20490;-71
2022/05/11 01:36:46;;;;;;;7.13;2.53;;;;;;;16.23;63.67;101120.16;4804776;29;20923;-71
2022/05/11 01:39:11;;;;;;;5.47;3.10;;;;;;;16.25;62.12;101128.03;4820735;29;20439;-71
2022/05/11 01:41:40;;;;;;;4.85;3.15;;;;;;;16.24;63.14;101123.69;4820975;29;20125;-71
2022/05/11 01:44:12;;;;;;;3.63;2.20;;;;;;;16.24;63.43;101121.00;4821256;29;20113;-71
2022/05/11 01:46:39;;;;;;;2.65;2.28;;;;;;;16.25;62.05;101130.72;4821138;29;20030;-71
2022/05/11 01:49:06;;;;;;;6.88;2.13;;;;;;;16.25;63.97;101125.34;4821187;29;20062;-71
2022/05/11 01:51:32;;;;;;;4.90;2.17;;;;;;;16.24;63.34;101118.28;4821109;29;20057;-71
2022/05/11 01:53:57;;;;;;;4.30;2.10;;;;;;;16.24;63.67;101121.00;4820982;29;20042;-71
2022/05/11 01:56:25;;;;;;;6.40;2.08;;;;;;;16.21;63.28;101123.06;4820917;29;20070;-71
2022/05/11 01:58:52;;;;;;;3.58;2.40;;;;;;;16.22;62.71;101123.91;4820985;29;20110;-71
2022/05/11 02:01:21;;;;;;;8.43;2.42;;;;;;;16.20;64.08;101112.56;4820640;29;20042;-71
2022/05/11 02:03:47;;;;;;;9.52;2.92;;;;;;;16.21;64.79;101106.94;4820739;29;20054;-71
2022/05/11 02:08:57;;;;;;;3.53;2.00;;;;;;;16.22;62.88;101115.84;4821216;29;20099;-72
2022/05/11 02:11:22;;;;;;;5.93;2.17;;;;;;;16.21;62.74;101117.69;4820861;29;20042;-71
2022/05/11 02:13:48;;;;;;;5.65;2.35;;;;;;;16.21;64.32;101120.38;4820769;29;20038;-71
2022/05/11 02:16:13;;;;;;;6.38;3.17;;;;;;;16.15;64.14;101112.41;4820829;29;20697;-71
2022/05/11 02:18:39;;;;;;;8.10;2.95;;;;;;;16.15;64.68;101110.53;4820795;29;20501;-71
2022/05/11 02:21:09;;;;;;;5.05;2.28;;;;;;;16.14;66.12;101116.97;4820924;29;20125;-72
2022/05/11 02:23:37;;;;;;;5.85;2.50;;;;;;;16.11;63.89;101108.53;4820666;29;20042;-71
2022/05/11 02:26:03;;;;;;;5.28;2.95;;;;;;;16.12;63.73;101102.94;4820700;29;20031;-71
2022/05/11 02:28:29;;;;;;;3.08;2.00;;;;;;;16.12;63.76;101107.50;4820672;29;20042;-71
2022/05/11 02:30:56;;;;;;;4.95;2.92;;;;;;;16.14;63.30;101105.41;4820668;29;20068;-71
2022/05/11 02:33:23;;;;;;;5.78;2.67;;;;;;;16.12;63.41;101100.25;4820542;29;20038;-71
2022/05/11 02:35:49;;;;;;;3.83;2.92;;;;;;;16.13;63.10;101101.88;4820581;29;20049;-71
2022/05/11 02:38:24;;;;;;;5.10;2.85;;;;;;;16.13;63.96;101107.25;4820579;29;20038;-71
2022/05/11 02:40:51;;;;;;;6.75;2.90;;;;;;;16.12;63.57;101107.50;4820218;29;20026;-71
2022/05/11 02:43:17;;;;;;;6.07;3.45;;;;;;;16.10;63.89;101099.63;4820582;29;20038;-71
2022/05/11 02:45:43;;;;;;;6.65;2.35;;;;;;;16.07;64.23;101099.28;4820483;29;20039;-71
2022/05/11 02:48:11;;;;;;;5.45;2.65;;;;;;;16.06;64.52;101101.16;4820578;29;20434;-71
2022/05/11 02:50:43;;;;;;;5.70;2.53;;;;;;;16.06;64.38;101101.16;4820438;29;20049;-72
2022/05/11 02:53:10;;;;;;;4.97;2.65;;;;;;;16.06;63.66;101103.00;4823066;29;20034;-71
2022/05/11 02:55:41;;;;;;;8.35;2.85;;;;;;;16.07;63.49;101101.97;4823578;29;20042;-68
2022/05/11 02:58:07;;;;;;;6.25;2.90;;;;;;;16.07;63.85;101101.97;4823977;29;20099;-68
2022/05/11 03:00:35;;;;;;;10.55;2.85;;;;;;;16.04;63.37;101105.94;4823669;29;20038;-67
2022/05/11 03:03:03;;;;;;;6.00;2.97;;;;;;;16.04;63.77;101095.19;4823363;29;20031;-68
2022/05/11 03:05:28;;;;;;;5.13;2.60;;;;;;;16.05;64.23;101096.81;4823564;29;20066;-68
2022/05/11 03:07:54;;;;;;;9.80;2.88;;;;;;;16.01;64.67;101092.94;4823669;29;20051;-68
2022/05/11 03:10:19;;;;;;;6.65;2.65;;;;;;;16.03;65.18;101095.38;4823791;29;20039;-68
2022/05/11 03:12:44;;;;;;;4.82;3.13;;;;;;;16.02;64.28;101089.19;4823461;29;20065;-68
2022/05/11 03:15:10;;;;;;;10.63;3.08;;;;;;;16.02;64.38;101093.75;4823518;29;20073;-68
2022/05/11 03:17:36;;;;;;;8.02;3.95;;;;;;;16.00;64.21;101086.72;4823550;29;20057;-67
2022/05/11 03:20:06;;;;;;;4.80;2.72;;;;;;;16.00;64.04;101088.59;4823582;29;20100;-68
2022/05/11 03:22:32;;;;;;;4.45;2.20;;;;;;;15.99;63.86;101082.41;4823415;29;20062;-68
2022/05/11 03:24:57;;;;;;;4.63;2.70;;;;;;;15.99;63.81;101076.19;4823728;29;20066;-68
2022/05/11 03:27:23;;;;;;;3.80;2.25;;;;;;;15.98;63.82;101067.31;4823384;29;20090;-67
2022/05/11 03:29:48;;;;;;;5.57;2.60;;;;;;;15.99;63.02;101066.25;4823279;29;20058;-68
2022/05/11 03:34:58;;;;;;;6.82;2.45;;;;;;;16.02;62.80;101064.97;4823569;29;20045;-68
2022/05/11 03:37:23;;;;;;;7.25;3.30;;;;;;;16.03;62.48;101058.53;4807006;29;20034;-68
2022/05/11 03:39:49;;;;;;;4.50;2.13;;;;;;;16.03;62.32;101065.78;4823306;29;20066;-68
2022/05/11 03:42:17;;;;;;;4.15;2.30;;;;;;;16.03;62.58;101063.91;4822565;29;20039;-68
2022/05/11 03:44:42;;;;;;;5.30;2.28;;;;;;;16.03;62.50;101061.22;4823125;29;20066;-68
2022/05/11 03:47:08;;;;;;;3.38;2.28;;;;;;;16.03;61.97;101063.09;4823192;29;20034;-67
2022/05/11 03:49:34;;;;;;;6.70;3.05;;;;;;;16.03;61.97;101052.34;4823000;29;20038;-68
2022/05/11 03:51:59;;;;;;;3.83;2.45;;;;;;;16.02;61.52;101054.22;4823039;29;20062;-67
2022/05/11 03:54:25;;;;;;;6.75;2.50;;;;;;;16.05;60.91;101059.13;4822930;29;20435;-68
2022/05/11 03:56:50;;;;;;;6.63;2.28;;;;;;;16.06;61.33;101052.72;4822848;29;20049;-68
2022/05/11 03:59:16;;;;;;;2.97;1.98;;;;;;;16.07;61.57;101051.66;4822760;29;20042;-68
2022/05/11 04:01:41;;;;;;;3.05;1.73;;;;;;;16.08;61.68;101052.47;4822726;29;20034;-68
2022/05/11 04:04:07;;;;;;;1.90;1.75;;;;;;;16.04;61.52;101037.84;4821800;29;20629;-68
2022/05/11 04:06:33;;;;;;;4.60;2.20;;;;;;;16.06;61.58;101050.03;4822154;29;20121;-68
2022/05/11 04:08:58;;;;;;;5.10;2.75;;;;;;;16.06;62.74;101049.19;4822471;29;20076;-68
2022/05/11 04:11:24;;;;;;;3.97;2.28;;;;;;;16.04;61.33;101049.44;4822670;29;20448;-68
2022/05/11 04:13:50;;;;;;;3.90;2.47;;;;;;;16.02;61.92;101045.31;4822547;29;20540;-68
2022/05/11 04:16:16;;;;;;;2.95;2.17;;;;;;;16.05;63.09;101053.75;4822610;29;20052;-68
2022/05/11 04:18:42;;;;;;;4.65;2.80;;;;;;;16.02;63.33;101050.72;4822716;29;20097;-67
2022/05/11 04:21:09;;;;;;;2.83;1.63;;;;;;;16.02;62.93;101054.22;4822683;29;20130;-68
2022/05/11 04:23:35;;;;;;;4.50;2.90;;;;;;;16.02;62.18;101048.84;4822344;29;20668;-68
2022/05/11 04:26:00;;;;;;;2.45;2.05;;;;;;;16.01;62.69;101041.81;4822306;29;20126;-67
2022/05/11 04:28:25;;;;;;;8.05;2.30;;;;;;;16.02;63.71;101039.94;4822450;29;20038;-68
2022/05/11 04:30:59;;;;;;;4.40;2.45;;;;;;;16.00;63.19;101040.97;4822415;29;20037;-68
2022/05/11 04:33:24;;;;;;;4.07;2.40;;;;;;;15.99;63.11;101035.84;4822212;29;20046;-68
2022/05/11 04:35:49;;;;;;;3.55;2.00;;;;;;;15.98;62.97;101039.56;4822279;29;20107;-71
2022/05/11 04:38:14;;;;;;;4.95;2.90;;;;;;;15.98;62.64;101040.41;4822205;29;20121;-71
2022/05/11 04:40:40;;;;;;;7.03;2.38;;;;;;;16.00;63.10;101040.16;4822292;29;20194;-71
2022/05/11 04:43:10;;;;;;;4.28;2.40;;;;;;;16.02;63.56;101046.16;4821916;29;20150;-71
2022/05/11 04:45:40;;;;;;;3.45;1.77;;;;;;;16.04;63.54;101037.84;4821853;29;20042;-71
2022/05/11 04:48:05;;;;;;;3.80;2.30;;;;;;;16.03;62.86;101033.50;4822057;29;20088;-71
2022/05/11 04:50:31;;;;;;;5.13;2.58;;;;;;;16.05;63.48;101043.00;4822067;29;20498;-71
2022/05/11 04:52:56;;;;;;;3.08;2.03;;;;;;;16.06;63.98;101046.50;4822005;29;20039;-71
2022/05/11 04:55:22;;;;;;;3.72;2.00;;;;;;;16.06;64.03;101044.66;4822005;29;20073;-71
2022/05/11 04:57:48;;;;;;;2.38;2.17;;;;;;;16.06;64.53;101033.03;4821841;29;20407;-71
2022/05/11 05:00:15;;;;;;;3.65;1.92;;;;;;;16.06;63.64;101033.03;4821857;29;20479;-71
2022/05/11 05:02:41;;;;;;;6.13;2.28;;;;;;;16.12;63.46;101040.22;4805452;29;20030;-71
2022/05/11 05:05:09;;;;;;;4.63;2.35;;;;;;;16.14;64.62;101044.31;4821540;29;20081;-71
2022/05/11 05:07:35;;;;;;;3.17;2.17;;;;;;;16.16;64.56;101044.91;4821529;29;20047;-71
2022/05/11 05:10:05;;;;;;;5.93;2.40;;;;;;;16.16;63.57;101047.59;4821431;29;20075;-71
2022/05/11 05:12:31;;;;;;;4.85;2.92;;;;;;;16.16;63.59;101036.81;4821548;29;20099;-71
2022/05/11 05:14:56;;;;;;;10.00;2.70;;;;;;;16.17;63.30;101049.25;4820904;29;20359;-71
2022/05/11 05:17:22;;;;;;;5.10;2.92;;;;;;;16.14;64.25;101044.31;4821706;29;20081;-71
2022/05/11 05:19:49;;;;;;;4.75;2.20;;;;;;;16.19;63.55;101047.16;4821765;29;20506;-71
2022/05/11 05:22:15;;;;;;;5.07;1.90;;;;;;;16.25;64.21;101045.41;4821512;29;20099;-71
2022/05/11 05:24:41;;;;;;;4.95;2.60;;;;;;;16.36;63.01;101047.31;4821604;29;20030;-71
2022/05/11 05:27:07;;;;;;;4.82;2.58;;;;;;;16.43;62.51;101045.34;4821619;29;20041;-71
2022/05/11 05:32:16;;;;;;;4.63;2.35;;;;;;;16.63;63.70;101063.88;4821739;29;20449;-72
2022/05/11 05:34:45;;;;;;;5.47;2.20;;;;;;;16.71;62.16;101059.19;4821339;29;20042;-71
2022/05/11 05:37:12;;;;;;;7.53;2.53;;;;;;;16.77;62.60;101058.28;4821231;29;20045;-72
2022/05/11 05:39:38;;;;;;;4.35;2.95;;;;;;;16.82;62.34;101050.34;4821332;29;20030;-71
2022/05/11 05:42:04;;;;;;;4.50;2.63;;;;;;;16.95;62.25;101060.06;4821196;29;20049;-71
2022/05/11 05:44:32;;;;;;;4.03;2.10;;;;;;;17.03;61.82;101055.16;4821137;29;20033;-71
2022/05/11 05:47:07;;;;;;;3.38;2.13;;;;;;;17.12;61.27;101055.63;4820717;29;20046;-71
2022/05/11 05:49:33;;;;;;;3.40;2.00;;;;;;;17.15;60.54;101055.16;4821201;29;20037;-72
2022/05/11 05:52:02;;;;;;;4.88;2.10;;;;;;;17.13;60.67;101054.56;4821107;29;20376;-72
2022/05/11 05:54:32;;;;;;;5.75;2.58;;;;;;;17.09;61.03;101059.59;4821121;29;20041;-71
2022/05/11 05:56:58;;;;;;;5.22;2.50;;;;;;;17.03;60.26;101060.56;4821138;29;20108;-71
2022/05/11 05:59:24;;;;;;;5.88;2.47;;;;;;;17.04;60.57;101054.09;4821086;29;20026;-71
2022/05/11 06:01:49;;;;;;;4.38;2.55;;;;;;;17.04;60.74;101056.78;4820708;29;20510;-71
2022/05/11 06:04:15;;;;;;;5.05;2.53;;;;;;;17.06;61.26;101059.28;4820917;29;20457;-71
2022/05/11 06:06:40;;;;;;;7.35;2.10;;;;;;;17.07;61.06;101066.28;4820691;29;20569;-71
2022/05/11 06:09:06;;;;;;;2.80;2.20;;;;;;;17.12;60.70;101069.09;4804286;29;20041;-71
2022/05/11 06:11:31;;;;;;;4.63;2.70;;;;;;;17.15;60.96;101074.00;4820574;29;20501;-71
2022/05/11 06:13:57;;;;;;;4.63;2.53;;;;;;;17.16;60.52;101069.44;4820677;29;20038;-71
2022/05/11 06:16:22;;;;;;;7.90;2.58;;;;;;;17.18;60.49;101065.44;4820795;29;20034;-71
2022/05/11 06:18:48;;;;;;;3.05;2.05;;;;;;;17.13;59.25;101069.91;4820926;29;20090;-72
2022/05/11 06:21:14;;;;;;;5.63;2.50;;;;;;;17.09;59.89;101066.88;4820814;29;20048;-71
2022/05/11 06:23:41;;;;;;;5.97;1.90;;;;;;;17.11;60.21;101072.00;4820705;29;20499;-72
2022/05/11 06:26:06;;;;;;;7.63;2.72;;;;;;;17.07;58.72;101066.28;4820532;29;20391;-72
2022/05/11 06:28:34;;;;;;;5.20;2.20;;;;;;;17.05;58.88;101066.50;4820534;29;20026;-71
2022/05/11 06:30:59;;;;;;;2.30;2.00;;;;;;;16.99;58.97;101061.25;4820528;29;20046;-71
2022/05/11 06:33:25;;;;;;;5.63;2.25;;;;;;;16.98;59.47;101049.66;4820579;29;20039;-71
2022/05/11 06:35:50;;;;;;;5.95;3.13;;;;;;;16.99;58.56;101053.16;4820670;29;20034;-71
2022/05/11 06:38:15;;;;;;;12.10;3.65;;;;;;;17.02;58.27;101048.13;4820685;29;20463;-71
2022/05/11 06:40:41;;;;;;;5.32;2.50;;;;;;;17.07;57.83;101050.13;4820664;29;20038;-71
2022/05/11 06:43:06;;;;;;;5.25;1.90;;;;;;;17.07;56.24;101047.41;4820494;29;20043;-71
2022/05/11 06:45:32;;;;;;;4.05;2.05;;;;;;;17.08;57.28;101051.75;4820506;29;20062;-71
2022/05/11 06:47:58;;;;;;;2.33;1.50;;;;;;;17.07;56.70;101042.84;4820270;29;20037;-71
2022/05/11 06:50:26;;;;;;;3.50;2.15;;;;;;;17.08;57.26;101041.81;4820187;29;20039;-71
2022/05/11 06:52:52;;;;;;;2.95;1.80;;;;;;;17.15;57.24;101048.94;4804237;29;20030;-71
2022/05/11 07:00:46;;;;;;;7.13;2.20;;;;;;;17.33;56.61;101056.09;4820675;29;20041;-71
2022/05/11 07:03:13;;;;;;;8.40;2.60;;;;;;;17.39;57.34;101047.84;4820488;29;20502;-70
2022/05/11 07:05:39;;;;;;;5.13;2.22;;;;;;;17.61;57.71;101049.94;4802235;29;20216;-70
2022/05/11 07:08:05;;;;;;;7.05;2.17;;;;;;;17.86;55.18;101047.75;4802142;29;20035;-70
2022/05/11 07:10:31;;;;;;;4.40;2.40;;;;;;;18.03;54.87;101047.81;4801841;29;20030;-72
2022/05/11 07:12:57;;;;;;;5.40;1.88;;;;;;;18.13;55.20;101050.72;4801688;29;20043;-70
2022/05/11 07:15:24;;;;;;;3.45;2.03;;;;;;;18.20;54.04;101052.44;4801973;29;20042;-70
2022/05/11 07:17:57;;;;;;;3.30;1.60;;;;;;;18.26;54.41;101054.16;4801977;29;20027;-70
2022/05/11 07:20:29;;;;;;;7.63;2.15;;;;;;;18.30;53.87;101050.72;4801589;29;20042;-70
2022/05/11 07:22:55;;;;;;;5.65;2.42;;;;;;;18.28;53.74;101054.75;4801732;29;20027;-71
2022/05/11 07:25:24;;;;;;;4.53;1.85;;;;;;;18.28;54.05;101052.84;4802152;29;20046;-70
2022/05/11 07:27:50;;;;;;;5.75;1.70;;;;;;;18.29;53.92;101049.09;4801957;29;20144;-70
2022/05/11 07:30:20;;;;;;;7.82;2.20;;;;;;;18.40;53.99;101050.09;4802008;29;20034;-71
2022/05/11 07:32:46;;;;;;;2.65;1.70;;;;;;;18.48;53.71;101049.69;4801812;29;20035;-70
2022/05/11 07:35:11;;;;;;;8.80;2.75;;;;;;;18.55;54.79;101046.84;4801882;29;20047;-70
2022/05/11 07:37:37;;;;;;;8.48;3.65;;;;;;;18.60;53.88;101041.50;4800357;29;20049;-71
2022/05/11 07:40:05;;;;;;;9.43;2.40;;;;;;;18.67;53.19;101046.75;4801117;29;20045;-72
2022/05/11 07:42:30;;;;;;;5.25;2.40;;;;;;;18.70;53.62;101038.16;4801418;29;20027;-71
2022/05/11 07:44:55;;;;;;;5.30;2.67;;;;;;;18.63;53.50;101046.44;4801412;29;20193;-69
2022/05/11 07:47:21;;;;;;;8.43;4.15;;;;;;;18.61;53.65;101049.38;4804003;29;20035;-71
2022/05/11 07:49:46;;;;;;;3.80;2.83;;;;;;;18.77;52.69;101053.16;4804784;29;20034;-70
2022/05/11 07:52:12;;;;;;;5.78;2.83;;;;;;;18.81;52.57;101053.50;4804823;29;20037;-70
2022/05/11 07:54:40;;;;;;;9.35;2.30;;;;;;;18.83;52.04;101054.88;4804874;29;20586;-70
2022/05/11 07:59:56;;;;;;;3.95;1.70;;;;;;;19.65;50.42;101057.91;4805281;29;20049;-71
2022/05/11 08:02:32;;;;;;;8.27;3.28;;;;;;;20.12;48.88;101063.63;4804799;29;20072;-72
2022/05/11 08:05:02;;;;;;;7.57;2.10;;;;;;;20.31;48.81;101045.13;4817716;29;20137;-70
2022/05/11 08:07:39;;;;;;;2.45;2.03;;;;;;;21.52;46.11;101050.06;4822805;29;20042;-70
2022/05/11 08:10:06;;;;;;;5.95;2.53;;;;;;;22.16;43.07;101054.31;4822639;29;20030;-70
2022/05/11 08:12:31;;;;;;;4.13;2.58;;;;;;;22.49;41.76;101047.59;4821918;29;20125;-70
2022/05/11 08:14:57;;;;;;;7.47;2.55;;;;;;;22.53;41.45;101057.66;4822262;29;20542;-70
2022/05/11 08:17:31;;;;;;;2.97;2.28;;;;;;;23.11;40.26;101057.34;4822444;29;20035;-70
2022/05/11 08:19:57;;;;;;;6.38;2.20;;;;;;;23.01;39.41;101059.28;4822609;29;20082;-70
2022/05/11 08:22:24;;;;;;;8.02;2.05;;;;;;;22.35;42.79;101050.03;4822363;29;20042;-69
2022/05/11 08:24:51;;;;;;;5.25;2.10;;;;;;;22.83;41.70;101047.84;4822645;29;20121;-70
2022/05/11 08:27:23;;;;;;;4.60;1.58;;;;;;;24.19;38.96;101043.28;4822445;29;20383;-70
2022/05/11 08:35:17;;;;;;;6.70;2.65;;;;;;;25.74;35.69;101042.28;4822803;29;20045;-71
2022/05/11 08:37:43;;;;;;;6.22;2.20;;;;;;;25.48;35.54;101040.97;4822184;29;20042;-70
2022/05/11 08:40:22;;;;;;;5.55;1.90;;;;;;;25.65;35.83;101045.94;4822224;29;20034;-70
2022/05/11 08:42:47;;;;;;;5.20;2.28;;;;;;;25.25;35.51;101054.34;4822209;29;20045;-71
2022/05/11 08:45:13;;;;;;;5.90;2.78;;;;;;;25.33;35.29;101048.25;4822177;29;20042;-71
2022/05/11 08:47:48;;;;;;;4.15;2.40;;;;;;;25.48;35.89;101049.97;4822521;29;20475;-71
2022/05/11 08:50:27;;;;;;;4.60;2.58;;;;;;;25.69;34.32;101053.28;4821116;29;20069;-71
2022/05/11 08:53:02;;;;;;;6.95;2.55;;;;;;;24.86;36.58;101058.03;4822057;29;20431;-71
2022/05/11 08:55:33;;;;;;;18.38;3.45;;;;;;;23.39;38.46;101053.16;4822179;29;20448;-71
2022/05/11 08:58:06;;;;;;;3.67;2.88;;;;;;;22.41;40.95;101039.97;4822080;29;20068;-71
2022/05/11 09:00:35;;;;;;;8.27;2.03;;;;;;;21.74;42.28;101042.53;4822051;29;20030;-71
2022/05/11 09:03:07;;;;;;;8.55;2.90;;;;;;;21.43;43.51;101047.00;4822339;29;20022;-71
2022/05/11 09:05:33;;;;;;;12.95;4.25;;;;;;;21.11;43.86;101047.09;4822129;29;20054;-71
2022/05/11 09:07:59;;;;;;;4.30;2.47;;;;;;;20.89;44.65;101037.19;4822134;29;20046;-71
2022/05/11 09:10:29;;;;;;;10.15;2.80;;;;;;;20.88;46.17;101043.72;4821795;29;20518;-70
2022/05/11 09:12:57;;;;;;;6.60;2.60;;;;;;;20.76;45.55;101037.66;4821547;29;20479;-71
2022/05/11 09:15:45;;;;;;;10.93;3.50;;;;;;;20.67;46.84;101037.31;4821383;29;20399;-71
2022/05/11 09:18:11;;;;;;;4.63;3.03;;;;;;;20.60;45.95;101035.91;4821503;29;20091;-71
2022/05/11 09:20:37;;;;;;;12.63;2.60;;;;;;;20.52;47.71;101029.84;4821731;29;20451;-71
2022/05/11 09:23:04;;;;;;;9.60;3.13;;;;;;;20.49;47.34;101034.97;4821565;29;20060;-71
2022/05/11 09:25:33;;;;;;;11.48;3.00;;;;;;;20.48;46.90;101027.91;4822037;29;20095;-71
2022/05/11 09:28:22;;;;;;;5.72;2.90;;;;;;;20.57;46.74;101026.41;4821404;29;20042;-71
2022/05/11 09:31:10;;;;;;;6.82;2.80;;;;;;;20.47;46.55;101021.69;4804991;29;20452;-71
2022/05/11 09:33:38;;;;;;;8.93;2.92;;;;;;;20.33;47.07;101025.88;4821462;29;20031;-71
2022/05/11 09:36:06;;;;;;;8.80;2.83;;;;;;;20.35;47.70;101013.72;4821138;29;20034;-71
2022/05/11 09:38:38;;;;;;;7.57;2.75;;;;;;;20.53;47.82;101011.69;4821277;29;20087;-71
2022/05/11 09:41:09;;;;;;;7.18;2.83;;;;;;;20.59;47.81;101016.09;4821408;29;20035;-71
2022/05/11 09:43:37;;;;;;;;;;;;;;;20.77;47.40;101023.00;4821864;29;20510;-71
2022/05/11 09:46:19;;;;;;;7.82;3.00;;;;;;;20.77;46.88;101015.69;4821389;29;20366;-68
2022/05/11 09:49:02;;;;;;;9.45;3.03;;;;;;;20.85;46.83;101014.38;4821201;29;20376;-68
2022/05/11 09:51:34;;;;;;;6.60;3.67;;;;;;;20.80;46.44;101008.94;4821273;29;20109;-68
2022/05/11 09:54:38;;;;;;;7.28;3.13;;;;;;;20.79;47.51;101010.84;4820677;29;20034;-68
2022/05/11 09:57:11;;;;;;;6.43;2.70;;;;;;;21.01;47.46;101015.28;4821189;29;20034;-68
2022/05/11 09:59:42;;;;;;;6.43;3.03;;;;;;;20.98;46.31;101011.22;4821074;29;20121;-69
2022/05/11 10:02:31;;;;;;;4.60;3.10;;;;;;;21.03;46.99;101007.72;4820812;29;20038;-68
2022/05/11 10:05:13;;;;;;;5.55;2.85;;;;;;;21.21;47.17;101015.41;4820790;29;20069;-68
2022/05/11 10:08:02;;;;;;;5.80;3.08;;;;;;;21.23;46.11;101012.44;4820900;29;20583;-68
2022/05/11 10:10:44;;;;;;;8.38;3.00;;;;;;;21.30;47.09;101013.03;4821085;29;20117;-68
2022/05/11 10:13:23;;;;;;;;;;;;;;;21.37;46.76;101000.03;4821334;29;20387;-68
2022/05/11 10:24:31;;;;;;;6.78;3.33;;;;;;;21.28;46.85;101003.53;4820537;29;20129;-68
2022/05/11 10:27:00;;;;;;;13.07;3.85;;;;;;;21.30;45.38;101004.06;4820842;29;20049;-68
2022/05/11 10:29:34;;;;;;;5.72;2.40;;;;;;;21.31;46.96;101003.81;4820721;29;20034;-68
2022/05/11 10:32:11;;;;;;;9.60;3.58;;;;;;;21.38;45.94;100990.03;4820653;29;20038;-67
2022/05/11 10:34:50;;;;;;;9.38;4.25;;;;;;;21.43;46.04;100990.88;4820417;29;20033;-68
2022/05/11 10:37:23;;;;;;;8.32;3.22;;;;;;;21.56;46.23;100994.16;4820774;29;20095;-68
2022/05/11 10:39:58;;;;;;;6.75;3.50;;;;;;;21.62;45.84;100987.66;4820634;29;20143;-68
2022/05/11 10:42:35;;;;;;;7.10;3.22;;;;;;;21.66;45.60;100983.31;4817462;29;20038;-71
2022/05/11 10:45:20;;;;;;;7.95;3.28;;;;;;;21.70;45.02;100978.19;4816279;29;20371;-70
2022/05/11 10:48:10;;;;;;;9.27;2.97;;;;;;;21.86;47.30;100966.28;4816681;29;20045;-68
2022/05/11 10:50:57;;;;;;;8.90;3.15;;;;;;;22.05;45.17;100966.56;4817883;29;20138;-68
2022/05/11 10:53:42;;;;;;;11.23;3.42;;;;;;;22.23;44.90;100970.66;4818627;29;20088;-68
2022/05/11 10:56:20;;;;;;;15.38;4.55;;;;;;;22.18;44.22;100955.16;4820068;29;20042;-68
2022/05/11 10:59:07;;;;;;;13.68;4.85;;;;;;;22.09;44.47;100970.38;4820460;29;20543;-68
2022/05/11 11:01:51;;;;;;;7.70;2.72;;;;;;;22.04;45.13;100959.50;4820231;29;20086;-68
2022/05/11 11:04:45;;;;;;;5.55;2.83;;;;;;;22.05;45.81;100959.22;4820147;29;20058;-68
2022/05/11 11:07:14;;;;;;;10.75;3.58;;;;;;;22.27;45.27;100969.88;4807705;29;20050;-68
2022/05/11 11:10:06;;;;;;;5.15;2.80;;;;;;;22.38;43.99;100967.97;4819077;29;20144;-68
2022/05/11 11:12:51;;;;;;;;;;;;;;;22.43;44.30;100948.13;4820879;29;20019;-68
2022/05/11 11:15:22;;;;;;;10.18;3.60;;;;;;;22.40;45.13;100952.19;4823595;29;20896;-68
2022/05/11 11:17:48;;;;;;;7.22;3.55;;;;;;;22.36;43.68;100950.28;4822994;29;20034;-68
2022/05/11 11:20:18;;;;;;;8.32;3.38;;;;;;;22.31;44.19;100951.91;4823017;29;20691;-68
2022/05/11 11:23:16;;;;;;;8.32;3.42;;;;;;;22.42;44.75;100951.91;4823295;29;20510;-68
2022/05/11 11:25:54;;;;;;;8.18;3.35;;;;;;;22.31;44.12;100951.91;4792047;29;20043;-68
2022/05/11 11:28:23;;;;;;;8.95;3.63;;;;;;;22.17;45.09;100948.09;4823455;29;20121;-68
2022/05/11 11:30:58;;;;;;;9.13;3.97;;;;;;;22.15;45.67;100939.41;4823241;29;20064;-68
2022/05/11 11:33:24;;;;;;;8.68;3.17;;;;;;;22.23;44.24;100954.38;4822916;29;20475;-69
2022/05/11 11:35:57;;;;;;;8.48;2.80;;;;;;;22.22;44.42;100937.25;4823366;29;20122;-68
2022/05/11 11:38:38;;;;;;;7.10;2.95;;;;;;;22.33;44.45;100932.63;4822990;29;20038;-68
2022/05/11 11:41:23;;;;;;;6.35;2.78;;;;;;;22.37;43.69;100944.56;4823259;29;20099;-68
2022/05/11 11:43:49;;;;;;;13.57;3.85;;;;;;;22.31;43.59;100937.50;4806902;29;20434;-68
2022/05/11 11:46:36;;;;;;;6.47;3.75;;;;;;;22.32;44.24;100922.84;4822919;29;20075;-68
2022/05/11 11:49:02;;;;;;;7.40;2.83;;;;;;;22.33;44.20;100912.81;4823075;29;20053;-68
2022/05/11 11:51:52;;;;;;;4.90;2.53;;;;;;;22.38;44.60;100919.03;4822982;29;20579;-68
2022/05/11 11:54:47;;;;;;;8.63;4.90;;;;;;;22.68;44.40;100923.59;4822650;29;20034;-68
2022/05/11 11:57:13;;;;;;;8.02;3.03;;;;;;;22.76;42.07;100917.56;4822722;29;20040;-68
2022/05/11 11:59:57;;;;;;;4.93;2.83;;;;;;;22.79;42.84;100913.50;4822093;29;20231;-68
2022/05/11 12:02:36;;;;;;;9.82;4.05;;;;;;;22.69;43.54;100916.25;4821897;29;20118;-68
2022/05/11 12:05:27;;;;;;;4.70;2.10;;;;;;;22.81;42.92;100913.22;4822579;29;20153;-68
2022/05/11 12:16:46;;;;;;;3.70;2.58;;;;;;;22.79;41.40;100902.59;4822752;29;20099;-68
2022/05/11 12:19:14;;;;;;;5.32;2.25;;;;;;;22.82;41.39;100902.09;4822203;29;20037;-68